Time;durP1;ratioP1;P1;durP2;ratioP2;P2;SDS_P1;SDS_P2;PMS_P1;PMS_P2;Temp;Humidity;BMP_temperature;BMP_pressure;BME280_temperature;BME280_humidity;BME280_pressure;Samples;Min_cycle;Max_cycle;Signal;HPM_P1;HPM_P2
2022/04/07 00:01:10;;;;;;;;;;;11.90;99.90;;;;;;5053730;28;19908;-80
2022/04/07 00:03:35;;;;;;;;;;;11.80;99.90;;;;;;5053984;28;19966;-80
2022/04/07 00:06:01;;;;;;;;;;;11.90;99.90;;;;;;5053781;28;19955;-80
2022/04/07 00:08:27;;;;;;;;;;;11.90;99.90;;;;;;5053818;28;19945;-80
2022/04/07 00:10:52;;;;;;;;;;;11.80;99.90;;;;;;5053603;28;19931;-80
2022/04/07 00:13:18;;;;;;;;;;;11.70;99.90;;;;;;5053557;28;19916;-80
2022/04/07 00:15:44;;;;;;;;;;;11.70;99.90;;;;;;5053542;28;19909;-80
2022/04/07 00:18:09;;;;;;;;;;;11.60;99.90;;;;;;5053584;28;19966;-81
2022/04/07 00:20:35;;;;;;;;;;;11.60;99.90;;;;;;5035413;28;19958;-80
2022/04/07 00:23:01;;;;;;;;;;;11.50;99.90;;;;;;5053374;28;19919;-80
2022/04/07 00:25:26;;;;;;;;;;;11.50;99.90;;;;;;5053630;28;19909;-81
2022/04/07 00:27:52;;;;;;;;;;;11.40;99.90;;;;;;5053555;28;20316;-80
2022/04/07 00:30:20;;;;;;;;;;;11.40;99.90;;;;;;5053466;28;20002;-80
2022/04/07 00:32:46;;;;;;;;;;;11.40;99.90;;;;;;5038485;28;19915;-80
2022/04/07 00:35:12;;;;;;;;;;;11.50;99.90;;;;;;5039596;28;20381;-80
2022/04/07 00:37:38;;;;;;;;;;;11.50;99.90;;;;;;5039528;28;19909;-80
2022/04/07 00:40:04;;;;;;;;;;;11.60;99.90;;;;;;5057369;28;19909;-80
2022/04/07 00:42:29;;;;;;;;;;;11.50;99.90;;;;;;5039359;28;20401;-80
2022/04/07 00:44:55;;;;;;;;;;;11.40;99.90;;;;;;5057281;28;19909;-80
2022/04/07 00:47:22;;;;;;;;;;;11.40;99.90;;;;;;5057248;28;20328;-80
2022/04/07 00:49:47;;;;;;;;;;;11.30;99.90;;;;;;5039311;28;19913;-79
2022/04/07 00:52:14;;;;;;;;;;;11.20;99.90;;;;;;5057127;28;19909;-80
2022/04/07 00:54:39;;;;;;;;;;;11.10;99.90;;;;;;5057015;28;20004;-80
2022/04/07 00:57:05;;;;;;;;;;;11.20;99.90;;;;;;5057392;28;19972;-80
2022/04/07 00:59:33;;;;;;;;;;;11.10;99.90;;;;;;5057041;28;19961;-80
2022/04/07 01:01:59;;;;;;;;;;;11.10;99.90;;;;;;5039024;28;19952;-80
2022/04/07 01:04:25;;;;;;;;;;;11.10;99.90;;;;;;5056930;28;20080;-80
2022/04/07 01:06:52;;;;;;;;;;;11.10;99.90;;;;;;5057308;28;19909;-80
2022/04/07 01:09:18;;;;;;;;;;;11.10;99.90;;;;;;5038996;28;19977;-80
2022/04/07 01:11:44;;;;;;;;;;;11.20;99.90;;;;;;5056794;28;19909;-80
2022/04/07 01:14:10;;;;;;;;;;;11.20;99.90;;;;;;5056750;28;20289;-80
2022/04/07 01:16:36;;;;;;;;;;;11.20;99.90;;;;;;5056745;28;19952;-80
2022/04/07 01:19:02;;;;;;;;;;;11.30;99.90;;;;;;5038519;28;19925;-80
2022/04/07 01:21:28;;;;;;;;;;;11.30;99.90;;;;;;5056604;28;19909;-80
2022/04/07 01:24:00;;;;;;;;;;;11.40;99.90;;;;;;5056606;28;19967;-80
2022/04/07 01:26:26;;;;;;;;;;;11.40;99.90;;;;;;5056557;28;19909;-80
2022/04/07 01:28:51;;;;;;;;;;;11.40;99.90;;;;;;5056454;28;19962;-80
2022/04/07 01:31:17;;;;;;;;;;;11.40;99.90;;;;;;5056578;28;19912;-80
2022/04/07 01:33:43;;;;;;;;;;;11.40;99.90;;;;;;5056607;28;19909;-80
2022/04/07 01:36:09;;;;;;;;;;;11.40;99.90;;;;;;5056434;28;19908;-80
2022/04/07 01:38:35;;;;;;;;;;;11.40;99.90;;;;;;5056506;28;20380;-80
2022/04/07 01:41:01;;;;;;;;;;;11.40;99.90;;;;;;5056255;28;20385;-80
2022/04/07 01:43:27;;;;;;;;;;;11.40;99.90;;;;;;5037618;28;20369;-80
2022/04/07 01:45:53;;;;;;;;;;;11.40;99.90;;;;;;5056207;28;19916;-80
2022/04/07 01:48:18;;;;;;;;;;;11.30;99.90;;;;;;5056363;28;19909;-80
2022/04/07 01:50:44;;;;;;;;;;;11.20;99.90;;;;;;5056398;28;19909;-80
2022/04/07 01:53:11;;;;;;;;;;;11.10;99.90;;;;;;5038132;28;19913;-80
2022/04/07 01:55:36;;;;;;;;;;;11.10;99.90;;;;;;5055909;28;19915;-81
2022/04/07 01:58:02;;;;;;;;;;;11.10;99.90;;;;;;5055956;28;20003;-81
2022/04/07 02:00:28;;;;;;;;;;;11.10;99.90;;;;;;5056090;28;19909;-82
2022/04/07 02:02:53;;;;;;;;;;;11.00;99.90;;;;;;5037678;28;19963;-82
2022/04/07 02:05:19;;;;;;;;;;;11.00;99.90;;;;;;5055779;28;19909;-82
2022/04/07 02:07:45;;;;;;;;;;;11.00;99.90;;;;;;5037813;28;19916;-81
2022/04/07 02:10:11;;;;;;;;;;;11.00;99.90;;;;;;5055690;28;19909;-80
2022/04/07 02:12:37;;;;;;;;;;;11.00;99.90;;;;;;5055634;28;20281;-80
2022/04/07 02:15:06;;;;;;;;;;;11.00;99.90;;;;;;5055758;28;20402;-80
2022/04/07 02:17:32;;;;;;;;;;;11.00;99.90;;;;;;5055568;28;20289;-80
2022/04/07 02:19:58;;;;;;;;;;;11.00;99.90;;;;;;5055136;28;19943;-79
2022/04/07 02:22:24;;;;;;;;;;;11.00;99.90;;;;;;5055628;28;19913;-80
2022/04/07 02:24:50;;;;;;;;;;;11.00;99.90;;;;;;5055458;28;19909;-79
2022/04/07 02:27:16;;;;;;;;;;;11.00;99.90;;;;;;5055371;28;19956;-79
2022/04/07 02:29:42;;;;;;;;;;;10.90;99.90;;;;;;5055301;28;19908;-79
2022/04/07 02:32:08;;;;;;;;;;;10.90;99.90;;;;;;5037345;28;19909;-79
2022/04/07 02:34:34;;;;;;;;;;;10.90;99.90;;;;;;5055238;28;19908;-79
2022/04/07 02:37:00;;;;;;;;;;;10.80;99.90;;;;;;5055277;28;20277;-79
2022/04/07 02:39:25;;;;;;;;;;;10.90;99.90;;;;;;5055398;28;19909;-79
2022/04/07 02:41:51;;;;;;;;;;;11.00;99.90;;;;;;5055299;28;20000;-79
2022/04/07 02:44:19;;;;;;;;;;;11.00;99.90;;;;;;5055025;28;20278;-79
2022/04/07 02:46:45;;;;;;;;;;;11.00;99.90;;;;;;5054995;28;19915;-79
2022/04/07 02:49:10;;;;;;;;;;;11.10;99.90;;;;;;5054966;28;19909;-79
2022/04/07 02:51:36;;;;;;;;;;;11.20;99.90;;;;;;5054887;28;20288;-79
2022/04/07 02:54:02;;;;;;;;;;;11.20;99.90;;;;;;5055118;28;19913;-79
2022/04/07 02:56:28;;;;;;;;;;;11.20;99.90;;;;;;5053916;28;20425;-78
2022/04/07 02:58:54;;;;;;;;;;;11.30;99.90;;;;;;5036874;28;19952;-79
2022/04/07 03:01:20;;;;;;;;;;;11.40;99.90;;;;;;5054746;28;19955;-79
2022/04/07 03:03:45;;;;;;;;;;;11.30;99.90;;;;;;5054607;28;19916;-79
2022/04/07 03:06:11;;;;;;;;;;;11.40;99.90;;;;;;5054726;28;19916;-78
2022/04/07 03:08:36;;;;;;;;;;;11.40;99.90;;;;;;5054562;28;19908;-78
2022/04/07 03:11:02;;;;;;;;;;;11.40;99.90;;;;;;5054523;28;19913;-79
2022/04/07 03:13:28;;;;;;;;;;;11.40;99.90;;;;;;5054443;28;19908;-78
2022/04/07 03:15:54;;;;;;;;;;;11.40;99.90;;;;;;5054576;28;19963;-77
2022/04/07 03:18:20;;;;;;;;;;;11.50;99.90;;;;;;5054225;28;19940;-78
2022/04/07 03:20:46;;;;;;;;;;;11.50;99.90;;;;;;5036247;28;19909;-78
2022/04/07 03:23:12;;;;;;;;;;;11.50;99.90;;;;;;5036424;28;20342;-78
2022/04/07 03:25:37;;;;;;;;;;;11.40;99.90;;;;;;5054484;28;19916;-78
2022/04/07 03:28:03;;;;;;;;;;;11.40;99.90;;;;;;5054328;28;19909;-78
2022/04/07 03:30:29;;;;;;;;;;;11.40;99.90;;;;;;5054203;28;19909;-78
2022/04/07 03:32:55;;;;;;;;;;;11.50;99.90;;;;;;5054161;28;20376;-77
2022/04/07 03:35:20;;;;;;;;;;;11.50;99.90;;;;;;5054158;28;20389;-78
2022/04/07 03:37:46;;;;;;;;;;;11.50;99.90;;;;;;5054207;28;19909;-78
2022/04/07 03:40:12;;;;;;;;;;;11.50;99.90;;;;;;5054103;28;19999;-78
2022/04/07 03:42:38;;;;;;;;;;;11.50;99.90;;;;;;5036013;28;20270;-78
2022/04/07 03:45:03;;;;;;;;;;;11.50;99.90;;;;;;5053979;28;19908;-78
2022/04/07 03:47:32;;;;;;;;;;;11.50;99.90;;;;;;5053849;28;19916;-78
2022/04/07 03:49:58;;;;;;;;;;;11.50;99.90;;;;;;5054404;28;19958;-78
2022/04/07 03:52:23;;;;;;;;;;;11.60;99.90;;;;;;5053801;28;19913;-78
2022/04/07 03:54:49;;;;;;;;;;;11.60;99.90;;;;;;5035826;28;19909;-78
2022/04/07 03:57:14;;;;;;;;;;;11.60;99.90;;;;;;5053708;28;19913;-78
2022/04/07 03:59:42;;;;;;;;;;;11.70;99.90;;;;;;5053747;28;20377;-78
2022/04/07 04:02:08;;;;;;;;;;;11.80;99.90;;;;;;5035682;28;20003;-78
2022/04/07 04:04:34;;;;;;;;;;;11.80;99.90;;;;;;5053655;28;20046;-78
2022/04/07 04:07:00;;;;;;;;;;;11.90;99.90;;;;;;5053410;28;20378;-78
2022/04/07 04:09:25;;;;;;;;;;;11.90;99.90;;;;;;5053816;28;19909;-78
2022/04/07 04:11:52;;;;;;;;;;;12.00;99.90;;;;;;5052387;28;19947;-77
2022/04/07 04:14:18;;;;;;;;;;;12.00;99.90;;;;;;5053560;28;19908;-78
2022/04/07 04:16:44;;;;;;;;;;;12.00;99.90;;;;;;5053658;28;19915;-79
2022/04/07 04:19:10;;;;;;;;;;;12.10;99.90;;;;;;5053309;28;19927;-78
2022/04/07 04:21:36;;;;;;;;;;;12.10;99.90;;;;;;5053663;28;20070;-78
2022/04/07 04:24:02;;;;;;;;;;;12.10;99.90;;;;;;5053642;28;20007;-78
2022/04/07 04:26:27;;;;;;;;;;;12.10;99.90;;;;;;5053604;28;19908;-78
2022/04/07 04:28:53;;;;;;;;;;;12.00;99.90;;;;;;5053453;28;19944;-77
2022/04/07 04:31:20;;;;;;;;;;;11.90;99.90;;;;;;5053364;28;20266;-78
2022/04/07 04:33:46;;;;;;;;;;;11.90;99.90;;;;;;5035457;28;20011;-78
2022/04/07 04:36:11;;;;;;;;;;;11.90;99.90;;;;;;5053345;28;19952;-78
2022/04/07 04:38:37;;;;;;;;;;;11.90;99.90;;;;;;5035443;28;19916;-78
2022/04/07 04:41:02;;;;;;;;;;;11.90;99.90;;;;;;5035680;28;19912;-78
2022/04/07 04:43:28;;;;;;;;;;;11.90;99.90;;;;;;5053181;28;20319;-78
2022/04/07 04:45:53;;;;;;;;;;;11.90;99.90;;;;;;5053277;28;19996;-79
2022/04/07 04:48:19;;;;;;;;;;;11.90;99.90;;;;;;5053222;28;19908;-78
2022/04/07 04:50:44;;;;;;;;;;;11.90;99.90;;;;;;5053221;28;19988;-78
2022/04/07 04:53:10;;;;;;;;;;;12.00;99.90;;;;;;5035305;28;19916;-78
2022/04/07 04:55:36;;;;;;;;;;;12.00;99.90;;;;;;5053068;28;19909;-78
2022/04/07 04:58:01;;;;;;;;;;;12.10;99.90;;;;;;5053135;28;19915;-77
2022/04/07 05:00:27;;;;;;;;;;;12.10;99.90;;;;;;5053186;28;20282;-78
2022/04/07 05:02:52;;;;;;;;;;;12.10;99.90;;;;;;5053158;28;19978;-78
2022/04/07 05:05:18;;;;;;;;;;;12.10;99.90;;;;;;5051827;28;19915;-78
2022/04/07 05:07:44;;;;;;;;;;;12.20;99.90;;;;;;5053498;28;19940;-78
2022/04/07 05:10:09;;;;;;;;;;;12.30;99.90;;;;;;5053193;28;19958;-78
2022/04/07 05:12:35;;;;;;;;;;;12.30;99.90;;;;;;5035148;28;19908;-78
2022/04/07 05:15:01;;;;;;;;;;;12.30;99.90;;;;;;5053042;28;19931;-78
2022/04/07 05:17:26;;;;;;;;;;;12.20;99.90;;;;;;5053040;28;19912;-78
2022/04/07 05:19:52;;;;;;;;;;;12.20;99.90;;;;;;5055384;28;20365;-78
2022/04/07 05:22:18;;;;;;;;;;;12.20;99.90;;;;;;5056781;28;20308;-78
2022/04/07 05:24:44;;;;;;;;;;;12.30;99.90;;;;;;5056566;28;19909;-78
2022/04/07 05:27:10;;;;;;;;;;;12.20;99.90;;;;;;5056614;28;20284;-78
2022/04/07 05:29:35;;;;;;;;;;;12.20;99.90;;;;;;5056506;28;20341;-78
2022/04/07 05:32:01;;;;;;;;;;;12.20;99.90;;;;;;5056444;28;19909;-78
2022/04/07 05:34:26;;;;;;;;;;;12.30;99.90;;;;;;5038431;28;20362;-78
2022/04/07 05:36:52;;;;;;;;;;;12.30;99.90;;;;;;5038465;28;19948;-78
2022/04/07 05:39:17;;;;;;;;;;;12.30;99.90;;;;;;5038422;28;19909;-78
2022/04/07 05:41:43;;;;;;;;;;;12.40;99.90;;;;;;5056257;28;20349;-78
2022/04/07 05:44:09;;;;;;;;;;;12.40;99.90;;;;;;5056149;28;19913;-77
2022/04/07 05:46:34;;;;;;;;;;;12.50;99.90;;;;;;5056187;28;20393;-78
2022/04/07 05:49:00;;;;;;;;;;;12.60;99.90;;;;;;5056022;28;19908;-78
2022/04/07 05:51:25;;;;;;;;;;;12.60;99.90;;;;;;5056100;28;20276;-78
2022/04/07 05:53:51;;;;;;;;;;;12.70;99.90;;;;;;5037970;28;20341;-78
2022/04/07 05:56:16;;;;;;;;;;;12.70;99.90;;;;;;5038038;28;19916;-78
2022/04/07 05:58:42;;;;;;;;;;;12.60;99.90;;;;;;5055858;28;19964;-78
2022/04/07 06:01:08;;;;;;;;;;;12.60;99.90;;;;;;5055955;28;19936;-78
2022/04/07 06:03:34;;;;;;;;;;;12.60;99.90;;;;;;5055761;28;20385;-78
2022/04/07 06:05:59;;;;;;;;;;;12.70;99.90;;;;;;5055876;28;19909;-77
2022/04/07 06:08:25;;;;;;;;;;;12.70;99.90;;;;;;5054414;28;19909;-78
2022/04/07 06:10:50;;;;;;;;;;;12.80;99.90;;;;;;5055702;28;19909;-78
2022/04/07 06:13:16;;;;;;;;;;;12.80;99.90;;;;;;5037814;28;19963;-78
2022/04/07 06:15:42;;;;;;;;;;;12.90;99.90;;;;;;5055810;28;19913;-78
2022/04/07 06:18:07;;;;;;;;;;;12.90;99.90;;;;;;5037603;28;20412;-77
2022/04/07 06:20:33;;;;;;;;;;;13.00;99.90;;;;;;5055830;28;19958;-78
2022/04/07 06:23:00;;;;;;;;;;;13.20;99.90;;;;;;5055716;28;19920;-78
2022/04/07 06:25:26;;;;;;;;;;;13.20;99.90;;;;;;5055710;28;19909;-78
2022/04/07 06:27:52;;;;;;;;;;;13.30;99.90;;;;;;5055417;28;19909;-78
2022/04/07 06:30:18;;;;;;;;;;;13.30;99.90;;;;;;5053942;28;19951;-78
2022/04/07 06:32:44;;;;;;;;;;;13.30;99.90;;;;;;5055345;28;19916;-78
2022/04/07 06:35:11;;;;;;;;;;;13.30;99.90;;;;;;5055328;28;19909;-78
2022/04/07 06:37:49;;;;;;;;;;;13.30;99.90;;;;;;5055237;28;19909;-77
2022/04/07 06:40:17;;;;;;;;;;;13.40;99.90;;;;;;5055558;28;19995;-77
2022/04/07 06:42:42;;;;;;;;;;;13.50;99.90;;;;;;5055103;28;19917;-78
2022/04/07 06:45:08;;;;;;;;;;;13.50;99.90;;;;;;5055191;28;19915;-78
2022/04/07 06:47:38;;;;;;;;;;;13.50;99.90;;;;;;5055164;28;19963;-78
2022/04/07 06:50:04;;;;;;;;;;;13.50;99.90;;;;;;5054970;28;19909;-78
2022/04/07 06:52:29;;;;;;;;;;;13.50;99.90;;;;;;5054850;28;19955;-77
2022/04/07 06:54:55;;;;;;;;;;;13.50;99.90;;;;;;5054807;28;19979;-79
2022/04/07 06:57:21;;;;;;;;;;;13.50;99.90;;;;;;5053487;28;19920;-78
2022/04/07 06:59:46;;;;;;;;;;;13.50;99.90;;;;;;5055157;28;19967;-78
2022/04/07 07:02:12;;;;;;;;;;;13.50;99.90;;;;;;5054633;28;19919;-77
2022/04/07 07:04:37;;;;;;;;;;;13.50;99.90;;;;;;5053420;28;20042;-77
2022/04/07 07:07:03;;;;;;;;;;;13.50;99.90;;;;;;5054782;28;20284;-78
2022/04/07 07:09:29;;;;;;;;;;;13.50;99.90;;;;;;5054553;28;19931;-79
2022/04/07 07:11:54;;;;;;;;;;;13.50;99.90;;;;;;5053055;28;19916;-78
2022/04/07 07:14:20;;;;;;;;;;;13.60;99.90;;;;;;5054647;28;19915;-78
2022/04/07 07:16:47;;;;;;;;;;;13.50;99.90;;;;;;5054527;28;19909;-78
2022/04/07 07:19:15;;;;;;;;;;;13.40;99.90;;;;;;5054197;28;19920;-78
2022/04/07 07:21:41;;;;;;;;;;;13.40;99.90;;;;;;5054636;28;20335;-78
2022/04/07 07:24:06;;;;;;;;;;;13.30;99.90;;;;;;5054334;28;19916;-78
2022/04/07 07:26:32;;;;;;;;;;;13.30;99.90;;;;;;5054271;28;19913;-78
2022/04/07 07:29:02;;;;;;;;;;;13.20;99.90;;;;;;5054713;28;19999;-78
2022/04/07 07:31:27;;;;;;;;;;;13.20;99.90;;;;;;5054583;28;19909;-79
2022/04/07 07:33:53;;;;;;;;;;;13.40;99.90;;;;;;5054462;28;19999;-78
2022/04/07 07:36:22;;;;;;;;;;;13.40;99.90;;;;;;5053976;28;19913;-78
2022/04/07 07:38:48;;;;;;;;;;;13.40;99.90;;;;;;5054017;28;19936;-77
2022/04/07 07:41:13;;;;;;;;;;;13.40;99.90;;;;;;5035697;28;19916;-78
2022/04/07 07:43:39;;;;;;;;;;;13.40;99.90;;;;;;5036019;28;19912;-79
2022/04/07 07:46:04;;;;;;;;;;;13.40;99.90;;;;;;5054105;28;20408;-78
2022/04/07 07:48:30;;;;;;;;;;;13.60;99.90;;;;;;5054199;28;19915;-79
2022/04/07 07:50:56;;;;;;;;;;;13.90;99.90;;;;;;5054053;28;19909;-78
2022/04/07 07:53:22;;;;;;;;;;;14.10;99.90;;;;;;5053897;28;19912;-78
2022/04/07 07:55:49;;;;;;;;;;;14.30;99.90;;;;;;5053628;28;19916;-78
2022/04/07 07:58:14;;;;;;;;;;;14.30;99.90;;;;;;5053931;28;20369;-79
2022/04/07 08:00:40;;;;;;;;;;;14.60;99.90;;;;;;5053821;28;19962;-78
2022/04/07 08:03:06;;;;;;;;;;;14.40;99.90;;;;;;5053742;28;19912;-78
2022/04/07 08:05:31;;;;;;;;;;;14.50;99.90;;;;;;5053852;28;19909;-78
2022/04/07 08:07:57;;;;;;;;;;;14.30;99.90;;;;;;5053830;28;20003;-78
2022/04/07 08:10:23;;;;;;;;;;;14.60;99.90;;;;;;5053577;28;19913;-78
2022/04/07 08:12:48;;;;;;;;;;;14.70;99.90;;;;;;5053482;28;20419;-78
2022/04/07 08:15:14;;;;;;;;;;;14.20;99.90;;;;;;5053567;28;19915;-77
2022/04/07 08:17:39;;;;;;;;;;;14.20;99.90;;;;;;5053737;28;19999;-78
2022/04/07 08:20:07;;;;;;;;;;;13.90;99.90;;;;;;5053310;28;19927;-79
2022/04/07 08:22:33;;;;;;;;;;;13.40;99.90;;;;;;5035488;28;19923;-78
2022/04/07 08:24:58;;;;;;;;;;;13.50;99.90;;;;;;5053458;28;19908;-78
2022/04/07 08:27:24;;;;;;;;;;;13.30;99.90;;;;;;5035492;28;19909;-77
2022/04/07 08:29:50;;;;;;;;;;;13.30;99.90;;;;;;5053401;28;19909;-79
2022/04/07 08:32:16;;;;;;;;;;;13.40;99.90;;;;;;5053961;28;19909;-78
2022/04/07 08:34:41;;;;;;;;;;;13.30;99.90;;;;;;5053329;28;20331;-79
2022/04/07 08:37:07;;;;;;;;;;;13.30;99.90;;;;;;5053549;28;19909;-78
2022/04/07 08:39:32;;;;;;;;;;;13.40;99.90;;;;;;5053513;28;20031;-79
2022/04/07 08:41:58;;;;;;;;;;;13.50;99.90;;;;;;5053514;28;19909;-78
2022/04/07 08:44:31;;;;;;;;;;;13.60;99.90;;;;;;5053329;28;19962;-79
2022/04/07 08:46:57;;;;;;;;;;;13.80;99.90;;;;;;5053787;28;20262;-78
2022/04/07 08:49:23;;;;;;;;;;;13.80;99.90;;;;;;5053264;28;19925;-78
2022/04/07 08:51:51;;;;;;;;;;;13.80;99.90;;;;;;5053412;28;20366;-79
2022/04/07 08:54:16;;;;;;;;;;;13.90;99.90;;;;;;5037357;28;19909;-78
2022/04/07 08:56:42;;;;;;;;;;;13.90;99.90;;;;;;5057198;28;19969;-78
2022/04/07 08:59:08;;;;;;;;;;;14.20;99.90;;;;;;5057150;28;19916;-78
2022/04/07 09:01:33;;;;;;;;;;;14.60;99.90;;;;;;5057239;28;20280;-79
2022/04/07 09:03:59;;;;;;;;;;;15.20;99.90;;;;;;5056973;28;19913;-79
2022/04/07 09:06:25;;;;;;;;;;;15.80;99.90;;;;;;5057164;28;19916;-79
2022/04/07 09:08:51;;;;;;;;;;;15.90;99.90;;;;;;5057062;28;19931;-78
2022/04/07 09:11:17;;;;;;;;;;;15.90;99.90;;;;;;5056854;28;20369;-79
2022/04/07 09:13:45;;;;;;;;;;;16.20;99.90;;;;;;5056830;28;19912;-79
2022/04/07 09:16:14;;;;;;;;;;;16.90;99.90;;;;;;5056961;28;19915;-79
2022/04/07 09:18:40;;;;;;;;;;;17.20;99.90;;;;;;5056703;28;19921;-78
2022/04/07 09:21:07;;;;;;;;;;;16.90;99.90;;;;;;5056748;28;20424;-79
2022/04/07 09:23:39;;;;;;;;;;;17.20;99.90;;;;;;5056563;28;19916;-79
2022/04/07 09:26:05;;;;;;;;;;;17.60;99.90;;;;;;5038665;28;20284;-78
2022/04/07 09:28:32;;;;;;;;;;;16.80;99.90;;;;;;5056654;28;19909;-78
2022/04/07 09:30:58;;;;;;;;;;;16.60;99.90;;;;;;5056527;28;19908;-77
2022/04/07 09:33:25;;;;;;;;;;;16.30;99.90;;;;;;5038576;28;19909;-79
2022/04/07 09:36:01;;;;;;;;;;;16.20;99.90;;;;;;5056427;28;20392;-78
2022/04/07 09:38:27;;;;;;;;;;;15.60;99.90;;;;;;5038249;28;19909;-79
2022/04/07 09:40:53;;;;;;;;;;;15.50;99.90;;;;;;5056392;28;19912;-79
2022/04/07 09:43:20;;;;;;;;;;;16.00;99.90;;;;;;5056187;28;19935;-79
2022/04/07 09:45:46;;;;;;;;;;;16.40;99.90;;;;;;5056220;28;19912;-78
2022/04/07 09:48:18;;;;;;;;;;;16.90;99.90;;;;;;5056345;28;19909;-79
2022/04/07 09:51:00;;;;;;;;;;;17.60;99.90;;;;;;5056371;28;19995;-79
2022/04/07 09:53:27;;;;;;;;;;;19.50;99.90;;;;;;5037919;28;19909;-78
2022/04/07 09:55:52;;;;;;;;;;;19.90;99.90;;;;;;5055977;28;19948;-78
2022/04/07 09:58:19;;;;;;;;;;;19.80;99.90;;;;;;5055957;28;19958;-79
2022/04/07 10:00:44;;;;;;;;;;;18.50;99.90;;;;;;5055981;28;19908;-78
2022/04/07 10:03:10;;;;;;;;;;;17.60;99.90;;;;;;5055896;28;20346;-78
2022/04/07 10:05:37;;;;;;;;;;;17.20;99.90;;;;;;5055327;28;20258;-79
2022/04/07 10:08:04;;;;;;;;;;;16.90;99.90;;;;;;5056001;28;19948;-78
2022/04/07 10:10:30;;;;;;;;;;;17.60;99.90;;;;;;5055786;28;19908;-79
2022/04/07 10:12:57;;;;;;;;;;;18.70;99.90;;;;;;5055973;28;20262;-79
2022/04/07 10:15:23;;;;;;;;;;;18.70;99.90;;;;;;5055650;28;20375;-79
2022/04/07 10:17:48;;;;;;;;;;;18.00;99.90;;;;;;5054160;28;20421;-78
2022/04/07 10:20:16;;;;;;;;;;;17.50;99.90;;;;;;5055783;28;19998;-78
2022/04/07 10:23:01;;;;;;;;;;;17.60;99.90;;;;;;5055513;28;20401;-78
2022/04/07 10:25:27;;;;;;;;;;;17.60;99.90;;;;;;5055546;28;19912;-78
2022/04/07 10:27:54;;;;;;;;;;;18.00;99.90;;;;;;5055409;28;20003;-79
2022/04/07 10:30:21;;;;;;;;;;;20.00;99.90;;;;;;5055385;28;19917;-79
2022/04/07 10:32:47;;;;;;;;;;;21.90;99.90;;;;;;5037404;28;19916;-78
2022/04/07 10:35:32;;;;;;;;;;;21.30;99.90;;;;;;5037378;28;19919;-79
2022/04/07 10:37:59;;;;;;;;;;;21.40;99.80;;;;;;5037369;28;19909;-78
2022/04/07 10:40:33;;;;;;;;;;;19.80;99.90;;;;;;5037266;28;20448;-78
2022/04/07 10:43:13;;;;;;;;;;;18.70;99.90;;;;;;5037159;28;20436;-78
2022/04/07 10:45:43;;;;;;;;;;;18.00;99.90;;;;;;5055146;28;20285;-78
2022/04/07 10:48:21;;;;;;;;;;;17.20;99.90;;;;;;5055028;28;19916;-78
2022/04/07 10:50:49;;;;;;;;;;;17.30;99.90;;;;;;5055014;28;19909;-79
2022/04/07 10:53:22;;;;;;;;;;;17.20;99.90;;;;;;5055067;28;20373;-78
2022/04/07 10:56:13;;;;;;;;;;;17.00;99.90;;;;;;5054841;28;20038;-78
2022/04/07 10:58:49;;;;;;;;;;;16.80;99.90;;;;;;5032283;28;19916;-78
2022/04/07 11:01:16;;;;;;;;;;;17.20;99.90;;;;;;5054941;28;19909;-79
2022/04/07 11:04:01;;;;;;;;;;;17.60;99.90;;;;;;5054667;28;19913;-78
2022/04/07 11:06:27;;;;;;;;;;;17.40;99.90;;;;;;5054545;28;19916;-79
2022/04/07 11:09:11;;;;;;;;;;;17.20;99.90;;;;;;5054806;28;20292;-78
2022/04/07 11:11:51;;;;;;;;;;;17.80;99.90;;;;;;5054597;28;19909;-79
2022/04/07 11:14:16;;;;;;;;;;;18.60;99.90;;;;;;5054531;28;19909;-78
2022/04/07 11:16:42;;;;;;;;;;;18.10;99.90;;;;;;5053688;28;19963;-78
2022/04/07 11:19:31;;;;;;;;;;;18.10;99.90;;;;;;5054450;28;20019;-78
2022/04/07 11:22:06;;;;;;;;;;;18.20;99.90;;;;;;5048614;28;19916;-79
2022/04/07 11:24:34;;;;;;;;;;;23.10;97.90;;;;;;5054595;28;19959;-79
2022/04/07 11:27:19;;;;;;;;;;;22.10;96.60;;;;;;5054279;28;19947;-80
2022/04/07 11:30:00;;;;;;;;;;;24.90;86.90;;;;;;5036204;28;19963;-80
2022/04/07 11:32:26;;;;;;;;;;;27.80;81.60;;;;;;5036095;28;19916;-80
2022/04/07 11:34:52;;;;;;;;;;;25.50;75.90;;;;;;5054186;28;19908;-80
2022/04/07 11:37:19;;;;;;;;;;;24.50;81.60;;;;;;5054140;28;19916;-79
2022/04/07 11:39:46;;;;;;;;;;;23.50;82.20;;;;;;5054132;28;19915;-79
2022/04/07 11:42:13;;;;;;;;;;;22.80;84.50;;;;;;5054327;28;19951;-79
2022/04/07 11:44:39;;;;;;;;;;;21.80;85.10;;;;;;5054430;28;19913;-78
2022/04/07 11:47:19;;;;;;;;;;;20.40;90.60;;;;;;5053974;28;20258;-78
2022/04/07 11:49:45;;;;;;;;;;;19.50;92.60;;;;;;5035882;28;19916;-79
2022/04/07 11:52:12;;;;;;;;;;;18.80;95.50;;;;;;5053939;28;19909;-78
2022/04/07 11:54:37;;;;;;;;;;;18.60;96.40;;;;;;5054014;28;20046;-79
2022/04/07 11:57:04;;;;;;;;;;;18.20;96.30;;;;;;5053846;28;20334;-78
2022/04/07 11:59:34;;;;;;;;;;;17.90;97.30;;;;;;5053735;28;19994;-78
2022/04/07 12:02:00;;;;;;;;;;;18.70;96.70;;;;;;5053763;28;19913;-79
2022/04/07 12:04:30;;;;;;;;;;;22.70;94.40;;;;;;5054014;28;19913;-79
2022/04/07 12:06:56;;;;;;;;;;;26.20;81.80;;;;;;5054253;28;19908;-79
2022/04/07 12:09:21;;;;;;;;;;;27.60;73.50;;;;;;5053615;28;19912;-80
2022/04/07 12:11:47;;;;;;;;;;;27.20;69.10;;;;;;5053621;28;19947;-79
2022/04/07 12:14:15;;;;;;;;;;;26.30;70.00;;;;;;5053587;28;19913;-79
2022/04/07 12:16:45;;;;;;;;;;;24.20;70.50;;;;;;5053765;28;19967;-80
2022/04/07 12:19:11;;;;;;;;;;;23.50;71.70;;;;;;5053301;28;19920;-78
2022/04/07 12:21:55;;;;;;;;;;;22.80;76.80;;;;;;5053479;28;19995;-80
2022/04/07 12:24:21;;;;;;;;;;;23.00;70.60;;;;;;5053385;28;19920;-79
2022/04/07 12:26:48;;;;;;;;;;;24.00;73.30;;;;;;5053557;28;19970;-79
2022/04/07 12:29:18;;;;;;;;;;;24.20;70.90;;;;;;5057304;28;19913;-80
2022/04/07 12:31:43;;;;;;;;;;;25.70;68.90;;;;;;5057617;28;19949;-79
2022/04/07 12:34:13;;;;;;;;;;;27.10;62.70;;;;;;5039685;28;20289;-80
2022/04/07 12:36:40;;;;;;;;;;;28.10;61.30;;;;;;5057646;28;19909;-80
2022/04/07 12:39:12;;;;;;;;;;;29.90;59.40;;;;;;5039549;28;19916;-80
2022/04/07 12:41:50;;;;;;;;;;;29.90;57.00;;;;;;5039561;28;19936;-79
2022/04/07 12:44:22;;;;;;;;;;;25.70;59.90;;;;;;5057605;28;20365;-79
2022/04/07 12:46:48;;;;;;;;;;;23.50;63.60;;;;;;5057929;28;20327;-78
2022/04/07 12:49:14;;;;;;;;;;;21.10;68.10;;;;;;5057311;28;19943;-79
2022/04/07 12:51:40;;;;;;;;;;;22.00;71.50;;;;;;5039314;28;19996;-79
2022/04/07 12:54:07;;;;;;;;;;;22.00;69.50;;;;;;5057291;28;20004;-77
2022/04/07 12:56:32;;;;;;;;;;;21.10;72.30;;;;;;5057182;28;20330;-78
2022/04/07 12:59:03;;;;;;;;;;;22.00;70.80;;;;;;5057129;28;19909;-79
2022/04/07 13:01:29;;;;;;;;;;;23.70;66.90;;;;;;5038997;28;19908;-80
2022/04/07 13:03:56;;;;;;;;;;;23.40;68.00;;;;;;5057164;28;19913;-79
2022/04/07 13:06:23;;;;;;;;;;;21.50;70.80;;;;;;5057077;28;19958;-80
2022/04/07 13:08:48;;;;;;;;;;;23.50;66.50;;;;;;5056973;28;20362;-79
2022/04/07 13:11:32;;;;;;;;;;;21.50;69.80;;;;;;5039061;28;20047;-79
2022/04/07 13:13:58;;;;;;;;;;;22.90;65.70;;;;;;5039291;28;19955;-78
2022/04/07 13:16:24;;;;;;;;;;;23.50;70.00;;;;;;5056912;28;19916;-79
2022/04/07 13:18:50;;;;;;;;;;;20.40;68.90;;;;;;5044436;28;19921;-78
2022/04/07 13:21:16;;;;;;;;;;;21.10;72.00;;;;;;5056750;28;19916;-79
2022/04/07 13:23:42;;;;;;;;;;;23.10;70.00;;;;;;5057212;28;20039;-80
2022/04/07 13:26:07;;;;;;;;;;;24.20;65.60;;;;;;5056673;28;19992;-79
2022/04/07 13:28:33;;;;;;;;;;;21.60;68.50;;;;;;5056675;28;19909;-78
2022/04/07 13:30:59;;;;;;;;;;;19.30;74.80;;;;;;5056578;28;19909;-78
2022/04/07 13:33:24;;;;;;;;;;;18.60;78.20;;;;;;5056506;28;20269;-78
2022/04/07 13:35:51;;;;;;;;;;;18.60;80.70;;;;;;5056484;28;19916;-78
2022/04/07 13:38:19;;;;;;;;;;;18.30;79.90;;;;;;5056740;28;19912;-78
2022/04/07 13:40:49;;;;;;;;;;;18.00;81.90;;;;;;5055543;28;19915;-78
2022/04/07 13:43:18;;;;;;;;;;;18.00;82.50;;;;;;5056527;28;19913;-79
2022/04/07 13:45:45;;;;;;;;;;;17.70;83.20;;;;;;5056628;28;19916;-78
2022/04/07 13:48:13;;;;;;;;;;;18.00;83.40;;;;;;5054966;28;19909;-79
2022/04/07 13:50:40;;;;;;;;;;;17.90;84.00;;;;;;5056198;28;20440;-78
2022/04/07 13:53:06;;;;;;;;;;;17.80;84.50;;;;;;5056109;28;19916;-79
2022/04/07 13:55:32;;;;;;;;;;;17.70;84.40;;;;;;5056028;28;19909;-79
2022/04/07 13:57:58;;;;;;;;;;;17.10;86.00;;;;;;5056241;28;19909;-78
2022/04/07 14:00:24;;;;;;;;;;;17.20;85.90;;;;;;5056069;28;20038;-79
2022/04/07 14:02:49;;;;;;;;;;;17.50;86.80;;;;;;5055848;28;19920;-79
2022/04/07 14:05:18;;;;;;;;;;;17.40;86.80;;;;;;5055920;28;19909;-78
2022/04/07 14:07:44;;;;;;;;;;;17.60;86.40;;;;;;5055769;28;19909;-79
2022/04/07 14:10:10;;;;;;;;;;;17.60;84.50;;;;;;5055693;28;19916;-79
2022/04/07 14:12:37;;;;;;;;;;;17.20;83.10;;;;;;5055789;28;19913;-79
2022/04/07 14:15:03;;;;;;;;;;;17.10;82.50;;;;;;5055792;28;20012;-77